sensor_id;sensor_type;location;lat;lon;timestamp;pressure;altitude;pressure_sealevel;temperature;humidity
26657;BME280;14279;50.010;8.260;2023-01-05T00:01:29;100626.63;;;12.25;93.88
26657;BME280;14279;50.010;8.260;2023-01-05T00:03:55;100625.75;;;12.42;93.45
26657;BME280;14279;50.010;8.260;2023-01-05T00:06:20;100631.22;;;12.37;93.28
26657;BME280;14279;50.010;8.260;2023-01-05T00:08:45;100629.53;;;12.36;92.92
26657;BME280;14279;50.010;8.260;2023-01-05T00:11:17;100623.78;;;12.47;92.28
26657;BME280;14279;50.010;8.260;2023-01-05T00:14:02;100618.84;;;12.41;92.61
26657;BME280;14279;50.010;8.260;2023-01-05T00:16:46;100623.16;;;12.24;93.65
26657;BME280;14279;50.010;8.260;2023-01-05T00:19:31;100636.50;;;12.18;95.40
26657;BME280;14279;50.010;8.260;2023-01-05T00:22:19;100635.50;;;12.21;95.56
26657;BME280;14279;50.010;8.260;2023-01-05T00:25:11;100631.34;;;11.97;97.88
26657;BME280;14279;50.010;8.260;2023-01-05T00:27:37;100626.28;;;11.94;98.58
26657;BME280;14279;50.010;8.260;2023-01-05T00:30:03;100644.28;;;12.00;99.79
26657;BME280;14279;50.010;8.260;2023-01-05T00:32:28;100621.91;;;11.95;100.00
26657;BME280;14279;50.010;8.260;2023-01-05T00:34:55;100626.50;;;11.90;100.00
26657;BME280;14279;50.010;8.260;2023-01-05T00:37:22;100621.78;;;11.98;100.00
26657;BME280;14279;50.010;8.260;2023-01-05T00:39:48;100622.97;;;11.91;100.00
26657;BME280;14279;50.010;8.260;2023-01-05T00:42:13;100630.81;;;11.91;100.00
26657;BME280;14279;50.010;8.260;2023-01-05T00:44:38;100612.28;;;11.78;100.00
26657;BME280;14279;50.010;8.260;2023-01-05T00:47:03;100609.03;;;11.92;100.00
26657;BME280;14279;50.010;8.260;2023-01-05T00:49:29;100608.06;;;11.75;100.00
26657;BME280;14279;50.010;8.260;2023-01-05T00:51:54;100604.03;;;11.87;100.00
26657;BME280;14279;50.010;8.260;2023-01-05T00:54:19;100604.94;;;11.86;100.00
26657;BME280;14279;50.010;8.260;2023-01-05T00:56:45;100597.03;;;11.87;100.00
26657;BME280;14279;50.010;8.260;2023-01-05T00:59:13;100597.28;;;11.83;100.00
26657;BME280;14279;50.010;8.260;2023-01-05T01:01:38;100606.50;;;11.71;100.00
26657;BME280;14279;50.010;8.260;2023-01-05T01:04:03;100595.84;;;11.76;100.00
26657;BME280;14279;50.010;8.260;2023-01-05T01:06:28;100614.59;;;11.84;100.00
26657;BME280;14279;50.010;8.260;2023-01-05T01:08:54;100607.63;;;11.84;100.00
26657;BME280;14279;50.010;8.260;2023-01-05T01:11:19;100601.72;;;11.81;100.00
26657;BME280;14279;50.010;8.260;2023-01-05T01:13:44;100618.56;;;11.73;100.00
26657;BME280;14279;50.010;8.260;2023-01-05T01:16:12;100626.88;;;11.82;100.00
26657;BME280;14279;50.010;8.260;2023-01-05T01:18:38;100630.81;;;11.71;100.00
26657;BME280;14279;50.010;8.260;2023-01-05T01:21:04;100627.78;;;11.81;100.00
26657;BME280;14279;50.010;8.260;2023-01-05T01:23:30;100612.13;;;11.81;100.00
26657;BME280;14279;50.010;8.260;2023-01-05T01:25:55;100619.59;;;11.88;100.00
26657;BME280;14279;50.010;8.260;2023-01-05T01:28:22;100626.66;;;11.86;100.00
26657;BME280;14279;50.010;8.260;2023-01-05T01:30:47;100608.88;;;11.95;100.00
26657;BME280;14279;50.010;8.260;2023-01-05T01:33:13;100619.16;;;11.98;100.00
26657;BME280;14279;50.010;8.260;2023-01-05T01:35:38;100629.66;;;11.96;99.71
26657;BME280;14279;50.010;8.260;2023-01-05T01:38:03;100626.38;;;12.12;98.24
26657;BME280;14279;50.010;8.260;2023-01-05T01:40:29;100630.66;;;12.13;96.98
26657;BME280;14279;50.010;8.260;2023-01-05T01:42:54;100638.03;;;12.22;95.39
26657;BME280;14279;50.010;8.260;2023-01-05T01:45:22;100624.78;;;12.27;93.95
26657;BME280;14279;50.010;8.260;2023-01-05T01:47:52;100628.66;;;12.18;92.83
26657;BME280;14279;50.010;8.260;2023-01-05T01:50:35;100638.66;;;12.27;91.04
26657;BME280;14279;50.010;8.260;2023-01-05T01:53:04;100633.97;;;12.34;90.85
26657;BME280;14279;50.010;8.260;2023-01-05T01:55:31;100619.22;;;12.33;89.07
26657;BME280;14279;50.010;8.260;2023-01-05T01:57:58;100634.06;;;12.32;88.34
26657;BME280;14279;50.010;8.260;2023-01-05T02:00:25;100618.25;;;12.36;87.42
26657;BME280;14279;50.010;8.260;2023-01-05T02:02:53;100634.47;;;12.42;86.39
26657;BME280;14279;50.010;8.260;2023-01-05T02:05:23;100605.50;;;12.47;85.24
26657;BME280;14279;50.010;8.260;2023-01-05T02:07:49;100620.25;;;12.48;83.47
26657;BME280;14279;50.010;8.260;2023-01-05T02:10:17;100626.00;;;12.55;83.19
26657;BME280;14279;50.010;8.260;2023-01-05T02:15:38;100613.94;;;12.70;80.52
26657;BME280;14279;50.010;8.260;2023-01-05T02:18:18;100618.84;;;12.76;80.66
26657;BME280;14279;50.010;8.260;2023-01-05T02:21:29;100614.69;;;12.72;80.68
26657;BME280;14279;50.010;8.260;2023-01-05T02:25:01;100631.09;;;12.75;80.44
26657;BME280;14279;50.010;8.260;2023-01-05T02:27:14;100608.50;;;12.74;79.07
26657;BME280;14279;50.010;8.260;2023-01-05T02:30:08;100598.41;;;12.84;78.81
26657;BME280;14279;50.010;8.260;2023-01-05T02:32:56;100630.84;;;12.62;78.71
26657;BME280;14279;50.010;8.260;2023-01-05T02:35:40;100631.91;;;12.76;78.78
26657;BME280;14279;50.010;8.260;2023-01-05T02:38:29;100639.75;;;12.76;78.31
26657;BME280;14279;50.010;8.260;2023-01-05T02:41:12;100608.84;;;12.67;78.21
26657;BME280;14279;50.010;8.260;2023-01-05T02:43:44;100639.13;;;12.71;77.95
26657;BME280;14279;50.010;8.260;2023-01-05T02:46:09;100629.69;;;12.68;77.20
26657;BME280;14279;50.010;8.260;2023-01-05T02:48:35;100635.22;;;12.62;77.03
26657;BME280;14279;50.010;8.260;2023-01-05T02:51:04;100630.53;;;12.69;77.41
26657;BME280;14279;50.010;8.260;2023-01-05T02:53:45;100651.56;;;12.66;77.43
26657;BME280;14279;50.010;8.260;2023-01-05T02:58:47;100649.13;;;12.62;78.01
26657;BME280;14279;50.010;8.260;2023-01-05T03:01:19;100655.25;;;12.44;77.92
26657;BME280;14279;50.010;8.260;2023-01-05T03:03:50;100656.03;;;12.46;77.09
26657;BME280;14279;50.010;8.260;2023-01-05T03:06:34;100649.25;;;12.42;76.09
26657;BME280;14279;50.010;8.260;2023-01-05T03:09:03;100633.91;;;12.53;75.25
26657;BME280;14279;50.010;8.260;2023-01-05T03:11:59;100641.75;;;12.53;73.81
26657;BME280;14279;50.010;8.260;2023-01-05T03:14:48;100659.03;;;12.56;73.28
26657;BME280;14279;50.010;8.260;2023-01-05T03:17:21;100642.13;;;12.45;72.84
26657;BME280;14279;50.010;8.260;2023-01-05T03:19:49;100645.19;;;12.54;72.76
26657;BME280;14279;50.010;8.260;2023-01-05T03:25:04;100642.53;;;12.38;72.55
26657;BME280;14279;50.010;8.260;2023-01-05T03:27:50;100646.97;;;12.36;73.36
26657;BME280;14279;50.010;8.260;2023-01-05T03:30:57;100663.31;;;12.39;72.79
26657;BME280;14279;50.010;8.260;2023-01-05T03:33:48;100659.56;;;12.45;72.38
26657;BME280;14279;50.010;8.260;2023-01-05T03:36:46;100678.53;;;12.48;72.74
26657;BME280;14279;50.010;8.260;2023-01-05T03:39:14;100675.22;;;12.45;72.62
26657;BME280;14279;50.010;8.260;2023-01-05T03:41:40;100672.84;;;12.40;72.99
26657;BME280;14279;50.010;8.260;2023-01-05T03:44:07;100674.31;;;12.46;72.35
26657;BME280;14279;50.010;8.260;2023-01-05T03:46:32;100667.00;;;12.35;72.26
26657;BME280;14279;50.010;8.260;2023-01-05T03:48:57;100686.19;;;12.34;71.19
26657;BME280;14279;50.010;8.260;2023-01-05T03:51:23;100701.22;;;12.29;70.35
26657;BME280;14279;50.010;8.260;2023-01-05T03:53:48;100710.97;;;12.25;70.00
26657;BME280;14279;50.010;8.260;2023-01-05T03:56:13;100698.59;;;12.29;69.21
26657;BME280;14279;50.010;8.260;2023-01-05T03:58:39;100686.03;;;12.37;69.24
26657;BME280;14279;50.010;8.260;2023-01-05T04:01:04;100686.94;;;12.18;69.03
26657;BME280;14279;50.010;8.260;2023-01-05T04:03:30;100694.53;;;12.23;68.82
26657;BME280;14279;50.010;8.260;2023-01-05T04:05:55;100690.94;;;12.26;68.38
26657;BME280;14279;50.010;8.260;2023-01-05T04:08:20;100703.22;;;12.24;68.41
26657;BME280;14279;50.010;8.260;2023-01-05T04:10:45;100683.19;;;12.24;68.17
26657;BME280;14279;50.010;8.260;2023-01-05T04:13:11;100678.69;;;12.09;68.27
26657;BME280;14279;50.010;8.260;2023-01-05T04:15:36;100683.06;;;12.08;68.26
26657;BME280;14279;50.010;8.260;2023-01-05T04:18:01;100691.81;;;12.07;68.18
26657;BME280;14279;50.010;8.260;2023-01-05T04:20:26;100688.38;;;12.07;68.42
26657;BME280;14279;50.010;8.260;2023-01-05T04:22:51;100675.22;;;12.08;68.16
26657;BME280;14279;50.010;8.260;2023-01-05T04:25:17;100680.53;;;12.07;67.84
26657;BME280;14279;50.010;8.260;2023-01-05T04:27:42;100685.06;;;12.03;68.28
26657;BME280;14279;50.010;8.260;2023-01-05T04:30:08;100680.53;;;12.07;68.49
26657;BME280;14279;50.010;8.260;2023-01-05T04:32:33;100683.50;;;11.99;67.93
26657;BME280;14279;50.010;8.260;2023-01-05T04:34:58;100703.78;;;12.11;67.73
26657;BME280;14279;50.010;8.260;2023-01-05T04:37:24;100691.66;;;11.91;67.62
26657;BME280;14279;50.010;8.260;2023-01-05T04:39:50;100703.72;;;11.94;67.99
26657;BME280;14279;50.010;8.260;2023-01-05T04:42:15;100677.53;;;11.95;67.69
26657;BME280;14279;50.010;8.260;2023-01-05T04:44:40;100707.59;;;12.04;68.05
26657;BME280;14279;50.010;8.260;2023-01-05T04:47:05;100676.63;;;11.96;67.45
26657;BME280;14279;50.010;8.260;2023-01-05T04:49:31;100704.25;;;12.02;67.89
26657;BME280;14279;50.010;8.260;2023-01-05T04:51:56;100702.59;;;11.99;67.74
26657;BME280;14279;50.010;8.260;2023-01-05T04:54:21;100705.41;;;11.95;67.58
26657;BME280;14279;50.010;8.260;2023-01-05T04:56:46;100698.41;;;11.95;67.76
26657;BME280;14279;50.010;8.260;2023-01-05T04:59:11;100708.84;;;11.95;67.56
26657;BME280;14279;50.010;8.260;2023-01-05T05:01:37;100720.91;;;11.98;67.69
26657;BME280;14279;50.010;8.260;2023-01-05T05:04:02;100714.56;;;11.84;67.82
26657;BME280;14279;50.010;8.260;2023-01-05T05:06:27;100724.09;;;11.85;67.90
26657;BME280;14279;50.010;8.260;2023-01-05T05:08:53;100729.03;;;11.92;67.34
26657;BME280;14279;50.010;8.260;2023-01-05T05:11:18;100709.34;;;11.84;67.50
26657;BME280;14279;50.010;8.260;2023-01-05T05:13:43;100735.44;;;11.84;67.91
26657;BME280;14279;50.010;8.260;2023-01-05T05:16:08;100740.47;;;11.89;67.54
26657;BME280;14279;50.010;8.260;2023-01-05T05:18:34;100733.69;;;11.85;67.69
26657;BME280;14279;50.010;8.260;2023-01-05T05:20:59;100752.81;;;12.24;66.77
26657;BME280;14279;50.010;8.260;2023-01-05T05:23:24;100746.91;;;12.01;67.22
26657;BME280;14279;50.010;8.260;2023-01-05T05:25:51;100753.63;;;11.86;67.33
26657;BME280;14279;50.010;8.260;2023-01-05T05:28:17;100752.72;;;11.87;67.58
26657;BME280;14279;50.010;8.260;2023-01-05T05:30:43;100774.97;;;11.94;67.59
26657;BME280;14279;50.010;8.260;2023-01-05T05:33:08;100760.41;;;11.90;67.58
26657;BME280;14279;50.010;8.260;2023-01-05T05:35:33;100769.63;;;11.99;67.33
26657;BME280;14279;50.010;8.260;2023-01-05T05:37:59;100764.41;;;11.97;67.27
26657;BME280;14279;50.010;8.260;2023-01-05T05:40:25;100772.38;;;12.15;67.11
26657;BME280;14279;50.010;8.260;2023-01-05T05:42:50;100780.94;;;11.98;67.72
26657;BME280;14279;50.010;8.260;2023-01-05T05:45:16;100772.88;;;11.83;67.90
26657;BME280;14279;50.010;8.260;2023-01-05T05:47:42;100773.94;;;11.98;67.98
26657;BME280;14279;50.010;8.260;2023-01-05T05:50:08;100780.94;;;11.98;67.36
26657;BME280;14279;50.010;8.260;2023-01-05T05:52:33;100773.72;;;11.84;67.91
26657;BME280;14279;50.010;8.260;2023-01-05T05:54:59;100783.44;;;12.01;67.73
26657;BME280;14279;50.010;8.260;2023-01-05T05:57:24;100789.41;;;11.82;68.23
26657;BME280;14279;50.010;8.260;2023-01-05T05:59:49;100788.59;;;11.82;68.09
26657;BME280;14279;50.010;8.260;2023-01-05T06:02:14;100789.66;;;11.97;68.18
26657;BME280;14279;50.010;8.260;2023-01-05T06:04:41;100788.19;;;11.91;67.96
26657;BME280;14279;50.010;8.260;2023-01-05T06:07:06;100786.63;;;11.87;68.01
26657;BME280;14279;50.010;8.260;2023-01-05T06:09:31;100785.84;;;11.85;68.05
26657;BME280;14279;50.010;8.260;2023-01-05T06:11:56;100791.19;;;11.82;68.44
26657;BME280;14279;50.010;8.260;2023-01-05T06:14:22;100800.03;;;11.79;68.58
26657;BME280;14279;50.010;8.260;2023-01-05T06:16:47;100791.00;;;11.86;68.38
26657;BME280;14279;50.010;8.260;2023-01-05T06:19:12;100799.03;;;11.82;68.35
26657;BME280;14279;50.010;8.260;2023-01-05T06:21:37;100793.69;;;11.85;68.50
26657;BME280;14279;50.010;8.260;2023-01-05T06:24:03;100802.53;;;12.01;67.72
26657;BME280;14279;50.010;8.260;2023-01-05T06:26:28;100806.50;;;11.90;67.51
26657;BME280;14279;50.010;8.260;2023-01-05T06:28:53;100809.50;;;11.80;67.80
26657;BME280;14279;50.010;8.260;2023-01-05T06:31:19;100814.13;;;11.94;67.67
26657;BME280;14279;50.010;8.260;2023-01-05T06:33:44;100819.41;;;11.93;67.43
26657;BME280;14279;50.010;8.260;2023-01-05T06:36:09;100822.25;;;11.88;67.56
26657;BME280;14279;50.010;8.260;2023-01-05T06:38:34;100832.22;;;11.99;66.95
26657;BME280;14279;50.010;8.260;2023-01-05T06:41:00;100835.66;;;11.99;67.00
26657;BME280;14279;50.010;8.260;2023-01-05T06:43:25;100830.41;;;12.01;67.04
26657;BME280;14279;50.010;8.260;2023-01-05T06:45:50;100824.25;;;11.81;67.99
26657;BME280;14279;50.010;8.260;2023-01-05T06:48:16;100830.81;;;11.71;68.06
26657;BME280;14279;50.010;8.260;2023-01-05T06:50:41;100837.75;;;11.70;68.70
26657;BME280;14279;50.010;8.260;2023-01-05T06:53:07;100828.72;;;11.79;68.34
26657;BME280;14279;50.010;8.260;2023-01-05T06:55:32;100834.63;;;11.83;68.29
26657;BME280;14279;50.010;8.260;2023-01-05T06:57:57;100836.41;;;11.62;68.91
26657;BME280;14279;50.010;8.260;2023-01-05T07:00:22;100841.81;;;11.78;68.78
26657;BME280;14279;50.010;8.260;2023-01-05T07:02:48;100836.00;;;11.71;68.92
26657;BME280;14279;50.010;8.260;2023-01-05T07:05:13;100833.06;;;11.79;68.58
26657;BME280;14279;50.010;8.260;2023-01-05T07:07:38;100842.06;;;11.71;69.30
26657;BME280;14279;50.010;8.260;2023-01-05T07:10:04;100853.81;;;11.61;69.57
26657;BME280;14279;50.010;8.260;2023-01-05T07:12:30;100855.69;;;11.57;69.40
26657;BME280;14279;50.010;8.260;2023-01-05T07:14:55;100855.63;;;11.59;69.58
26657;BME280;14279;50.010;8.260;2023-01-05T07:17:20;100865.53;;;11.51;69.72
26657;BME280;14279;50.010;8.260;2023-01-05T07:19:45;100858.78;;;11.67;68.96
26657;BME280;14279;50.010;8.260;2023-01-05T07:22:11;100865.22;;;11.58;69.36
26657;BME280;14279;50.010;8.260;2023-01-05T07:24:36;100865.88;;;11.64;69.50
26657;BME280;14279;50.010;8.260;2023-01-05T07:27:01;100873.06;;;11.79;69.10
26657;BME280;14279;50.010;8.260;2023-01-05T07:29:27;100875.78;;;11.76;69.29
26657;BME280;14279;50.010;8.260;2023-01-05T07:31:52;100873.22;;;11.75;69.71
26657;BME280;14279;50.010;8.260;2023-01-05T07:34:21;100873.03;;;11.58;70.30
26657;BME280;14279;50.010;8.260;2023-01-05T07:36:47;100869.84;;;11.72;70.13
26657;BME280;14279;50.010;8.260;2023-01-05T07:39:13;100881.13;;;11.73;70.10
26657;BME280;14279;50.010;8.260;2023-01-05T07:41:38;100885.63;;;11.69;70.13
26657;BME280;14279;50.010;8.260;2023-01-05T07:44:04;100885.78;;;11.66;70.36
26657;BME280;14279;50.010;8.260;2023-01-05T07:46:29;100887.25;;;11.51;70.84
26657;BME280;14279;50.010;8.260;2023-01-05T07:48:55;100891.81;;;11.67;70.44
26657;BME280;14279;50.010;8.260;2023-01-05T07:51:20;100882.63;;;11.58;71.28
26657;BME280;14279;50.010;8.260;2023-01-05T07:53:46;100901.69;;;11.38;72.67
26657;BME280;14279;50.010;8.260;2023-01-05T07:56:12;100899.50;;;11.49;72.94
26657;BME280;14279;50.010;8.260;2023-01-05T07:58:37;100914.94;;;11.54;73.11
26657;BME280;14279;50.010;8.260;2023-01-05T08:01:04;100918.56;;;11.29;74.57
26657;BME280;14279;50.010;8.260;2023-01-05T08:03:30;100919.44;;;11.30;75.16
26657;BME280;14279;50.010;8.260;2023-01-05T08:05:55;100926.63;;;11.23;75.43
26657;BME280;14279;50.010;8.260;2023-01-05T08:08:20;100930.19;;;11.20;75.54
26657;BME280;14279;50.010;8.260;2023-01-05T08:10:46;100931.66;;;11.27;75.62
26657;BME280;14279;50.010;8.260;2023-01-05T08:13:11;100926.50;;;11.26;75.33
26657;BME280;14279;50.010;8.260;2023-01-05T08:15:56;100932.94;;;11.39;74.55
26657;BME280;14279;50.010;8.260;2023-01-05T08:18:24;100927.75;;;11.38;74.68
26657;BME280;14279;50.010;8.260;2023-01-05T08:20:54;100940.75;;;11.39;74.38
26657;BME280;14279;50.010;8.260;2023-01-05T08:23:20;100939.09;;;11.59;73.90
26657;BME280;14279;50.010;8.260;2023-01-05T08:25:45;100947.66;;;11.40;73.93
26657;BME280;14279;50.010;8.260;2023-01-05T08:28:10;100945.00;;;11.63;73.37
26657;BME280;14279;50.010;8.260;2023-01-05T08:30:35;100949.28;;;11.43;73.45
26657;BME280;14279;50.010;8.260;2023-01-05T08:33:01;100946.31;;;11.52;73.60
26657;BME280;14279;50.010;8.260;2023-01-05T08:35:26;100949.16;;;11.46;72.96
26657;BME280;14279;50.010;8.260;2023-01-05T08:37:51;100947.78;;;11.37;73.21
26657;BME280;14279;50.010;8.260;2023-01-05T08:40:16;100951.00;;;11.65;72.43
26657;BME280;14279;50.010;8.260;2023-01-05T08:42:42;100954.94;;;11.75;72.23
26657;BME280;14279;50.010;8.260;2023-01-05T08:45:07;100947.38;;;11.47;72.57
26657;BME280;14279;50.010;8.260;2023-01-05T08:47:34;100948.59;;;11.60;72.27
26657;BME280;14279;50.010;8.260;2023-01-05T08:49:59;100948.72;;;11.57;72.14
26657;BME280;14279;50.010;8.260;2023-01-05T08:52:24;100957.88;;;11.67;71.89
26657;BME280;14279;50.010;8.260;2023-01-05T08:54:49;100960.22;;;11.73;71.30
26657;BME280;14279;50.010;8.260;2023-01-05T08:57:15;100956.44;;;11.60;71.58
26657;BME280;14279;50.010;8.260;2023-01-05T08:59:40;100948.16;;;11.71;71.08
26657;BME280;14279;50.010;8.260;2023-01-05T09:02:10;100960.50;;;11.67;71.41
26657;BME280;14279;50.010;8.260;2023-01-05T09:04:35;100967.00;;;11.78;70.81
26657;BME280;14279;50.010;8.260;2023-01-05T09:07:00;100951.59;;;11.71;70.88
26657;BME280;14279;50.010;8.260;2023-01-05T09:09:26;100964.41;;;11.78;70.80
26657;BME280;14279;50.010;8.260;2023-01-05T09:11:51;100962.69;;;11.97;70.17
26657;BME280;14279;50.010;8.260;2023-01-05T09:14:16;100964.41;;;11.98;70.36
26657;BME280;14279;50.010;8.260;2023-01-05T09:16:42;100969.72;;;11.75;70.86
26657;BME280;14279;50.010;8.260;2023-01-05T09:19:08;100961.59;;;11.82;70.86
26657;BME280;14279;50.010;8.260;2023-01-05T09:21:34;100969.25;;;11.87;70.68
26657;BME280;14279;50.010;8.260;2023-01-05T09:23:59;100967.91;;;11.77;71.36
26657;BME280;14279;50.010;8.260;2023-01-05T09:26:24;100984.28;;;11.80;71.09
26657;BME280;14279;50.010;8.260;2023-01-05T09:28:49;100983.56;;;11.97;70.53
26657;BME280;14279;50.010;8.260;2023-01-05T09:31:17;100994.63;;;12.04;70.41
26657;BME280;14279;50.010;8.260;2023-01-05T09:33:43;100979.91;;;12.03;70.83
26657;BME280;14279;50.010;8.260;2023-01-05T09:36:10;100990.59;;;12.17;70.57
26657;BME280;14279;50.010;8.260;2023-01-05T09:38:36;100996.94;;;12.12;71.01
26657;BME280;14279;50.010;8.260;2023-01-05T09:41:10;100991.25;;;12.02;71.12
26657;BME280;14279;50.010;8.260;2023-01-05T09:43:40;100988.03;;;12.16;70.81
26657;BME280;14279;50.010;8.260;2023-01-05T09:46:13;100993.66;;;12.07;70.77
26657;BME280;14279;50.010;8.260;2023-01-05T09:48:41;100990.41;;;12.22;70.64
26657;BME280;14279;50.010;8.260;2023-01-05T09:51:08;101000.31;;;12.35;70.10
26657;BME280;14279;50.010;8.260;2023-01-05T09:53:34;100994.28;;;12.53;69.63
26657;BME280;14279;50.010;8.260;2023-01-05T09:56:00;100997.53;;;12.18;70.24
26657;BME280;14279;50.010;8.260;2023-01-05T09:58:30;100998.06;;;12.46;69.94
26657;BME280;14279;50.010;8.260;2023-01-05T10:01:15;101001.69;;;12.43;70.26
26657;BME280;14279;50.010;8.260;2023-01-05T10:03:53;101001.81;;;12.20;71.02
26657;BME280;14279;50.010;8.260;2023-01-05T10:06:20;101003.06;;;12.31;70.89
26657;BME280;14279;50.010;8.260;2023-01-05T10:08:50;100994.97;;;12.38;70.27
26657;BME280;14279;50.010;8.260;2023-01-05T10:11:26;101005.25;;;12.41;70.81
26657;BME280;14279;50.010;8.260;2023-01-05T10:14:22;101009.00;;;12.35;71.16
26657;BME280;14279;50.010;8.260;2023-01-05T10:16:48;101015.53;;;12.45;71.05
26657;BME280;14279;50.010;8.260;2023-01-05T10:19:16;101008.53;;;12.25;71.58
26657;BME280;14279;50.010;8.260;2023-01-05T10:27:08;101020.06;;;12.61;70.13
26657;BME280;14279;50.010;8.260;2023-01-05T10:29:42;101019.38;;;12.37;70.47
26657;BME280;14279;50.010;8.260;2023-01-05T10:32:21;101018.84;;;12.49;69.83
26657;BME280;14279;50.010;8.260;2023-01-05T10:35:01;101022.31;;;12.69;69.44
26657;BME280;14279;50.010;8.260;2023-01-05T10:38:05;101023.59;;;12.60;69.86
26657;BME280;14279;50.010;8.260;2023-01-05T10:46:15;101028.75;;;12.41;69.54
26657;BME280;14279;50.010;8.260;2023-01-05T10:48:42;101020.94;;;12.61;69.00
26657;BME280;14279;50.010;8.260;2023-01-05T10:51:08;101020.28;;;12.36;69.44
26657;BME280;14279;50.010;8.260;2023-01-05T10:53:36;101029.38;;;12.67;68.19
26657;BME280;14279;50.010;8.260;2023-01-05T10:56:03;101015.22;;;12.72;68.41
26657;BME280;14279;50.010;8.260;2023-01-05T10:58:33;101018.91;;;12.87;68.09
26657;BME280;14279;50.010;8.260;2023-01-05T11:04:08;101018.91;;;12.87;67.52
26657;BME280;14279;50.010;8.260;2023-01-05T11:06:36;101019.34;;;12.97;66.81
26657;BME280;14279;50.010;8.260;2023-01-05T11:11:37;101030.72;;;12.96;66.81
26657;BME280;14279;50.010;8.260;2023-01-05T11:14:03;101023.75;;;13.14;66.16
26657;BME280;14279;50.010;8.260;2023-01-05T11:16:30;101027.31;;;12.94;66.90
26657;BME280;14279;50.010;8.260;2023-01-05T11:18:59;101029.84;;;13.15;65.92
26657;BME280;14279;50.010;8.260;2023-01-05T11:23:59;101036.84;;;12.95;65.91
26657;BME280;14279;50.010;8.260;2023-01-05T11:26:33;101024.97;;;13.26;65.03
26657;BME280;14279;50.010;8.260;2023-01-05T11:31:54;101037.47;;;13.00;65.29
26657;BME280;14279;50.010;8.260;2023-01-05T11:34:45;101040.53;;;13.10;64.95
26657;BME280;14279;50.010;8.260;2023-01-05T11:39:41;101038.19;;;13.04;64.49
26657;BME280;14279;50.010;8.260;2023-01-05T11:47:33;101037.47;;;13.19;63.91
26657;BME280;14279;50.010;8.260;2023-01-05T11:52:44;101042.44;;;13.45;62.93
26657;BME280;14279;50.010;8.260;2023-01-05T11:57:50;101044.19;;;13.44;62.91
26657;BME280;14279;50.010;8.260;2023-01-05T12:01:20;101045.53;;;13.53;62.91
26657;BME280;14279;50.010;8.260;2023-01-05T12:09:14;101035.22;;;13.50;62.32
26657;BME280;14279;50.010;8.260;2023-01-05T12:11:52;101022.50;;;13.23;62.35
26657;BME280;14279;50.010;8.260;2023-01-05T12:14:39;101035.22;;;13.31;62.20
26657;BME280;14279;50.010;8.260;2023-01-05T12:17:18;101031.66;;;13.51;61.30
26657;BME280;14279;50.010;8.260;2023-01-05T12:25:01;101042.09;;;13.52;61.18
26657;BME280;14279;50.010;8.260;2023-01-05T12:27:52;101044.97;;;13.46;61.40
26657;BME280;14279;50.010;8.260;2023-01-05T12:33:01;101032.38;;;13.35;61.51
26657;BME280;14279;50.010;8.260;2023-01-05T12:35:54;101030.13;;;13.28;61.43
26657;BME280;14279;50.010;8.260;2023-01-05T12:44:00;101041.66;;;13.79;61.85
26657;BME280;14279;50.010;8.260;2023-01-05T12:49:29;101038.69;;;13.87;61.76
26657;BME280;14279;50.010;8.260;2023-01-05T12:52:02;101045.66;;;13.69;62.05
26657;BME280;14279;50.010;8.260;2023-01-05T12:57:26;101047.44;;;13.68;61.65
26657;BME280;14279;50.010;8.260;2023-01-05T13:00:07;101048.13;;;13.90;61.66
26657;BME280;14279;50.010;8.260;2023-01-05T13:02:38;101056.44;;;13.80;61.06
26657;BME280;14279;50.010;8.260;2023-01-05T13:05:26;101045.50;;;13.72;61.46
26657;BME280;14279;50.010;8.260;2023-01-05T13:07:56;101049.28;;;13.84;61.93
26657;BME280;14279;50.010;8.260;2023-01-05T13:12:57;101049.19;;;13.86;61.33
26657;BME280;14279;50.010;8.260;2023-01-05T13:15:32;101047.31;;;13.52;62.32
26657;BME280;14279;50.010;8.260;2023-01-05T13:18:00;101047.47;;;13.67;62.51
26657;BME280;14279;50.010;8.260;2023-01-05T13:21:01;101048.38;;;13.48;62.75
26657;BME280;14279;50.010;8.260;2023-01-05T13:23:25;101052.78;;;13.48;62.95
26657;BME280;14279;50.010;8.260;2023-01-05T13:25:56;101047.72;;;13.43;63.37
26657;BME280;14279;50.010;8.260;2023-01-05T13:28:24;101056.31;;;13.47;63.35
26657;BME280;14279;50.010;8.260;2023-01-05T13:36:53;101060.03;;;13.41;63.88
26657;BME280;14279;50.010;8.260;2023-01-05T13:39:33;101063.47;;;13.22;64.40
26657;BME280;14279;50.010;8.260;2023-01-05T13:48:18;101072.16;;;13.04;68.18
26657;BME280;14279;50.010;8.260;2023-01-05T13:51:16;101068.28;;;13.13;68.50
26657;BME280;14279;50.010;8.260;2023-01-05T13:53:46;101068.00;;;13.00;69.15
26657;BME280;14279;50.010;8.260;2023-01-05T13:56:22;101068.56;;;12.67;70.70
26657;BME280;14279;50.010;8.260;2023-01-05T13:59:04;101077.78;;;12.55;71.13
26657;BME280;14279;50.010;8.260;2023-01-05T14:01:43;101077.06;;;12.51;71.58
26657;BME280;14279;50.010;8.260;2023-01-05T14:04:19;101072.63;;;12.32;71.78
26657;BME280;14279;50.010;8.260;2023-01-05T14:06:46;101073.47;;;12.54;71.38
26657;BME280;14279;50.010;8.260;2023-01-05T14:09:37;101070.16;;;12.50;70.59
26657;BME280;14279;50.010;8.260;2023-01-05T14:17:55;101085.44;;;12.59;68.87
26657;BME280;14279;50.010;8.260;2023-01-05T14:22:55;101088.69;;;12.44;69.36
26657;BME280;14279;50.010;8.260;2023-01-05T14:33:51;101099.53;;;12.55;68.72
26657;BME280;14279;50.010;8.260;2023-01-05T14:39:43;101094.75;;;12.24;68.91
26657;BME280;14279;50.010;8.260;2023-01-05T14:44:48;101094.09;;;12.39;68.40
26657;BME280;14279;50.010;8.260;2023-01-05T14:47:15;101114.09;;;12.18;69.23
26657;BME280;14279;50.010;8.260;2023-01-05T14:49:41;101105.78;;;12.51;68.20